sensor_id;sensor_type;location;lat;lon;timestamp;P1;durP1;ratioP1;P2;durP2;ratioP2
3975;SDS011;2002;48.812;9.180;2022-10-16T00:01:24;2.70;;;2.50;;
3975;SDS011;2002;48.812;9.180;2022-10-16T00:03:55;2.20;;;2.00;;
3975;SDS011;2002;48.812;9.180;2022-10-16T00:06:21;2.50;;;2.30;;
3975;SDS011;2002;48.812;9.180;2022-10-16T00:08:48;2.63;;;2.10;;
3975;SDS011;2002;48.812;9.180;2022-10-16T00:11:19;2.17;;;1.80;;
3975;SDS011;2002;48.812;9.180;2022-10-16T00:13:50;3.03;;;2.50;;
3975;SDS011;2002;48.812;9.180;2022-10-16T00:16:19;2.50;;;2.30;;
3975;SDS011;2002;48.812;9.180;2022-10-16T00:18:45;2.40;;;2.10;;
3975;SDS011;2002;48.812;9.180;2022-10-16T00:21:18;3.00;;;2.07;;
3975;SDS011;2002;48.812;9.180;2022-10-16T00:23:45;2.50;;;2.30;;
3975;SDS011;2002;48.812;9.180;2022-10-16T00:26:12;2.10;;;1.90;;
3975;SDS011;2002;48.812;9.180;2022-10-16T00:28:40;1.80;;;1.70;;
3975;SDS011;2002;48.812;9.180;2022-10-16T00:31:06;2.07;;;1.87;;
3975;SDS011;2002;48.812;9.180;2022-10-16T00:33:34;2.23;;;1.60;;
3975;SDS011;2002;48.812;9.180;2022-10-16T00:36:01;2.63;;;2.23;;
3975;SDS011;2002;48.812;9.180;2022-10-16T00:38:28;2.03;;;1.83;;
3975;SDS011;2002;48.812;9.180;2022-10-16T00:40:54;2.57;;;2.37;;
3975;SDS011;2002;48.812;9.180;2022-10-16T00:46:12;2.20;;;2.00;;
3975;SDS011;2002;48.812;9.180;2022-10-16T00:48:42;2.40;;;2.20;;
3975;SDS011;2002;48.812;9.180;2022-10-16T00:51:19;2.10;;;1.80;;
3975;SDS011;2002;48.812;9.180;2022-10-16T00:53:50;1.93;;;1.70;;
3975;SDS011;2002;48.812;9.180;2022-10-16T00:56:16;2.17;;;1.97;;
3975;SDS011;2002;48.812;9.180;2022-10-16T00:58:43;2.50;;;2.30;;
3975;SDS011;2002;48.812;9.180;2022-10-16T01:01:08;2.70;;;2.10;;
3975;SDS011;2002;48.812;9.180;2022-10-16T01:03:35;2.03;;;1.83;;
3975;SDS011;2002;48.812;9.180;2022-10-16T01:06:09;2.93;;;2.73;;
3975;SDS011;2002;48.812;9.180;2022-10-16T01:11:48;2.70;;;2.50;;
3975;SDS011;2002;48.812;9.180;2022-10-16T01:17:29;2.10;;;1.90;;
3975;SDS011;2002;48.812;9.180;2022-10-16T01:22:59;2.40;;;1.80;;
3975;SDS011;2002;48.812;9.180;2022-10-16T01:28:28;2.97;;;2.10;;
3975;SDS011;2002;48.812;9.180;2022-10-16T01:31:26;2.00;;;1.70;;
3975;SDS011;2002;48.812;9.180;2022-10-16T01:33:58;2.20;;;2.00;;
3975;SDS011;2002;48.812;9.180;2022-10-16T01:36:31;1.97;;;1.87;;
3975;SDS011;2002;48.812;9.180;2022-10-16T01:39:02;2.57;;;2.37;;
3975;SDS011;2002;48.812;9.180;2022-10-16T01:41:32;2.57;;;2.30;;
3975;SDS011;2002;48.812;9.180;2022-10-16T01:44:07;2.17;;;1.80;;
3975;SDS011;2002;48.812;9.180;2022-10-16T01:46:37;2.17;;;1.90;;
3975;SDS011;2002;48.812;9.180;2022-10-16T01:49:06;2.07;;;1.87;;
3975;SDS011;2002;48.812;9.180;2022-10-16T01:51:33;2.00;;;1.80;;
3975;SDS011;2002;48.812;9.180;2022-10-16T01:54:01;2.40;;;2.00;;
3975;SDS011;2002;48.812;9.180;2022-10-16T01:56:29;1.90;;;1.80;;
3975;SDS011;2002;48.812;9.180;2022-10-16T01:59:00;2.27;;;1.93;;
3975;SDS011;2002;48.812;9.180;2022-10-16T02:01:29;1.73;;;1.63;;
3975;SDS011;2002;48.812;9.180;2022-10-16T02:03:59;2.90;;;2.40;;
3975;SDS011;2002;48.812;9.180;2022-10-16T02:06:34;2.10;;;1.80;;
3975;SDS011;2002;48.812;9.180;2022-10-16T02:09:00;2.13;;;1.93;;
3975;SDS011;2002;48.812;9.180;2022-10-16T02:11:26;2.27;;;2.07;;
3975;SDS011;2002;48.812;9.180;2022-10-16T02:13:53;2.60;;;2.40;;
3975;SDS011;2002;48.812;9.180;2022-10-16T02:16:32;2.00;;;1.80;;
3975;SDS011;2002;48.812;9.180;2022-10-16T02:19:03;2.60;;;2.40;;
3975;SDS011;2002;48.812;9.180;2022-10-16T02:21:30;2.33;;;2.13;;
3975;SDS011;2002;48.812;9.180;2022-10-16T02:24:11;2.27;;;2.07;;
3975;SDS011;2002;48.812;9.180;2022-10-16T02:26:57;2.70;;;2.23;;
3975;SDS011;2002;48.812;9.180;2022-10-16T02:29:39;2.70;;;2.13;;
3975;SDS011;2002;48.812;9.180;2022-10-16T02:32:10;2.90;;;2.10;;
3975;SDS011;2002;48.812;9.180;2022-10-16T02:34:38;2.00;;;1.80;;
3975;SDS011;2002;48.812;9.180;2022-10-16T02:37:05;2.17;;;1.90;;
3975;SDS011;2002;48.812;9.180;2022-10-16T02:39:32;2.63;;;2.40;;
3975;SDS011;2002;48.812;9.180;2022-10-16T02:41:58;2.40;;;2.20;;
3975;SDS011;2002;48.812;9.180;2022-10-16T02:44:24;2.20;;;1.83;;
3975;SDS011;2002;48.812;9.180;2022-10-16T02:46:49;2.10;;;1.90;;
3975;SDS011;2002;48.812;9.180;2022-10-16T02:49:15;2.17;;;1.97;;
3975;SDS011;2002;48.812;9.180;2022-10-16T02:51:40;2.40;;;2.20;;
3975;SDS011;2002;48.812;9.180;2022-10-16T02:54:06;2.00;;;1.80;;
3975;SDS011;2002;48.812;9.180;2022-10-16T02:56:31;1.67;;;1.53;;
3975;SDS011;2002;48.812;9.180;2022-10-16T02:58:57;1.90;;;1.70;;
3975;SDS011;2002;48.812;9.180;2022-10-16T03:01:23;2.10;;;1.90;;
3975;SDS011;2002;48.812;9.180;2022-10-16T03:03:48;2.23;;;1.90;;
3975;SDS011;2002;48.812;9.180;2022-10-16T03:06:14;1.93;;;1.63;;
3975;SDS011;2002;48.812;9.180;2022-10-16T03:08:40;2.20;;;1.80;;
3975;SDS011;2002;48.812;9.180;2022-10-16T03:11:05;2.33;;;1.90;;
3975;SDS011;2002;48.812;9.180;2022-10-16T03:13:31;2.67;;;2.20;;
3975;SDS011;2002;48.812;9.180;2022-10-16T03:15:56;1.63;;;1.50;;
3975;SDS011;2002;48.812;9.180;2022-10-16T03:18:22;2.03;;;1.83;;
3975;SDS011;2002;48.812;9.180;2022-10-16T03:20:47;1.90;;;1.70;;
3975;SDS011;2002;48.812;9.180;2022-10-16T03:23:13;2.37;;;2.17;;
3975;SDS011;2002;48.812;9.180;2022-10-16T03:25:39;1.97;;;1.87;;
3975;SDS011;2002;48.812;9.180;2022-10-16T03:28:04;2.30;;;2.10;;
3975;SDS011;2002;48.812;9.180;2022-10-16T03:30:30;2.10;;;1.87;;
3975;SDS011;2002;48.812;9.180;2022-10-16T03:32:56;2.37;;;2.17;;
3975;SDS011;2002;48.812;9.180;2022-10-16T03:35:21;2.07;;;1.87;;
3975;SDS011;2002;48.812;9.180;2022-10-16T03:37:48;3.23;;;2.90;;
3975;SDS011;2002;48.812;9.180;2022-10-16T03:40:13;1.80;;;1.70;;
3975;SDS011;2002;48.812;9.180;2022-10-16T03:42:39;2.30;;;1.80;;
3975;SDS011;2002;48.812;9.180;2022-10-16T03:45:05;2.87;;;2.17;;
3975;SDS011;2002;48.812;9.180;2022-10-16T03:47:31;1.77;;;1.67;;
3975;SDS011;2002;48.812;9.180;2022-10-16T03:49:58;2.17;;;1.90;;
3975;SDS011;2002;48.812;9.180;2022-10-16T03:52:24;1.80;;;1.70;;
3975;SDS011;2002;48.812;9.180;2022-10-16T03:54:49;1.93;;;1.80;;
3975;SDS011;2002;48.812;9.180;2022-10-16T03:57:15;1.70;;;1.30;;
3975;SDS011;2002;48.812;9.180;2022-10-16T03:59:41;1.90;;;1.70;;
3975;SDS011;2002;48.812;9.180;2022-10-16T04:02:06;2.37;;;2.00;;
3975;SDS011;2002;48.812;9.180;2022-10-16T04:04:32;2.37;;;2.17;;
3975;SDS011;2002;48.812;9.180;2022-10-16T04:06:59;2.03;;;1.83;;
3975;SDS011;2002;48.812;9.180;2022-10-16T04:09:25;2.13;;;1.93;;
3975;SDS011;2002;48.812;9.180;2022-10-16T04:11:51;2.30;;;1.90;;
3975;SDS011;2002;48.812;9.180;2022-10-16T04:14:16;2.27;;;2.07;;
3975;SDS011;2002;48.812;9.180;2022-10-16T04:16:42;1.40;;;1.30;;
3975;SDS011;2002;48.812;9.180;2022-10-16T04:19:09;2.20;;;1.97;;
3975;SDS011;2002;48.812;9.180;2022-10-16T04:21:35;2.27;;;2.07;;
3975;SDS011;2002;48.812;9.180;2022-10-16T04:24:01;2.47;;;2.27;;
3975;SDS011;2002;48.812;9.180;2022-10-16T04:26:26;2.33;;;2.10;;
3975;SDS011;2002;48.812;9.180;2022-10-16T04:28:52;2.10;;;1.93;;
3975;SDS011;2002;48.812;9.180;2022-10-16T04:31:17;2.20;;;2.00;;
3975;SDS011;2002;48.812;9.180;2022-10-16T04:33:43;1.63;;;1.53;;
3975;SDS011;2002;48.812;9.180;2022-10-16T04:36:08;1.90;;;1.60;;
3975;SDS011;2002;48.812;9.180;2022-10-16T04:38:34;2.20;;;2.00;;
3975;SDS011;2002;48.812;9.180;2022-10-16T04:40:59;1.93;;;1.83;;
3975;SDS011;2002;48.812;9.180;2022-10-16T04:43:25;1.80;;;1.63;;
3975;SDS011;2002;48.812;9.180;2022-10-16T04:45:51;2.43;;;2.03;;
3975;SDS011;2002;48.812;9.180;2022-10-16T04:48:17;1.93;;;1.70;;
3975;SDS011;2002;48.812;9.180;2022-10-16T04:50:43;2.30;;;2.10;;
3975;SDS011;2002;48.812;9.180;2022-10-16T04:53:09;2.27;;;1.90;;
3975;SDS011;2002;48.812;9.180;2022-10-16T04:55:34;1.87;;;1.77;;
3975;SDS011;2002;48.812;9.180;2022-10-16T04:58:00;2.27;;;1.90;;
3975;SDS011;2002;48.812;9.180;2022-10-16T05:00:25;2.50;;;2.30;;
3975;SDS011;2002;48.812;9.180;2022-10-16T05:02:51;2.17;;;1.97;;
3975;SDS011;2002;48.812;9.180;2022-10-16T05:05:17;1.97;;;1.70;;
3975;SDS011;2002;48.812;9.180;2022-10-16T05:07:44;2.10;;;1.90;;
3975;SDS011;2002;48.812;9.180;2022-10-16T05:10:10;2.40;;;1.90;;
3975;SDS011;2002;48.812;9.180;2022-10-16T05:12:36;3.13;;;2.53;;
3975;SDS011;2002;48.812;9.180;2022-10-16T05:15:02;2.30;;;2.07;;
3975;SDS011;2002;48.812;9.180;2022-10-16T05:17:28;1.90;;;1.80;;
3975;SDS011;2002;48.812;9.180;2022-10-16T05:19:53;1.93;;;1.77;;
3975;SDS011;2002;48.812;9.180;2022-10-16T05:22:19;2.03;;;1.83;;
3975;SDS011;2002;48.812;9.180;2022-10-16T05:24:44;2.07;;;1.67;;
3975;SDS011;2002;48.812;9.180;2022-10-16T05:27:10;2.03;;;1.87;;
3975;SDS011;2002;48.812;9.180;2022-10-16T05:29:36;1.90;;;1.60;;
3975;SDS011;2002;48.812;9.180;2022-10-16T05:32:02;1.83;;;1.63;;
3975;SDS011;2002;48.812;9.180;2022-10-16T05:34:27;1.70;;;1.60;;
3975;SDS011;2002;48.812;9.180;2022-10-16T05:36:53;1.70;;;1.60;;
3975;SDS011;2002;48.812;9.180;2022-10-16T05:39:19;2.20;;;2.00;;
3975;SDS011;2002;48.812;9.180;2022-10-16T05:41:44;2.00;;;1.70;;
3975;SDS011;2002;48.812;9.180;2022-10-16T05:44:10;2.07;;;1.87;;
3975;SDS011;2002;48.812;9.180;2022-10-16T05:46:36;4.90;;;1.90;;
3975;SDS011;2002;48.812;9.180;2022-10-16T05:49:02;1.83;;;1.67;;
3975;SDS011;2002;48.812;9.180;2022-10-16T05:51:28;1.80;;;1.57;;
3975;SDS011;2002;48.812;9.180;2022-10-16T05:53:53;2.07;;;1.83;;
3975;SDS011;2002;48.812;9.180;2022-10-16T05:56:19;1.90;;;1.70;;
3975;SDS011;2002;48.812;9.180;2022-10-16T05:58:44;1.87;;;1.70;;
3975;SDS011;2002;48.812;9.180;2022-10-16T06:01:11;1.93;;;1.83;;
3975;SDS011;2002;48.812;9.180;2022-10-16T06:03:41;2.20;;;2.00;;
3975;SDS011;2002;48.812;9.180;2022-10-16T06:06:08;1.90;;;1.70;;
3975;SDS011;2002;48.812;9.180;2022-10-16T06:08:35;2.53;;;2.20;;
3975;SDS011;2002;48.812;9.180;2022-10-16T06:11:04;1.70;;;1.60;;
3975;SDS011;2002;48.812;9.180;2022-10-16T06:13:31;2.00;;;1.73;;
3975;SDS011;2002;48.812;9.180;2022-10-16T06:15:57;1.90;;;1.80;;
3975;SDS011;2002;48.812;9.180;2022-10-16T06:18:24;2.13;;;1.77;;
3975;SDS011;2002;48.812;9.180;2022-10-16T06:20:51;2.00;;;1.80;;
3975;SDS011;2002;48.812;9.180;2022-10-16T06:23:16;1.67;;;1.57;;
3975;SDS011;2002;48.812;9.180;2022-10-16T06:25:42;2.17;;;1.83;;
3975;SDS011;2002;48.812;9.180;2022-10-16T06:28:07;2.20;;;2.00;;
3975;SDS011;2002;48.812;9.180;2022-10-16T06:30:33;2.03;;;1.83;;
3975;SDS011;2002;48.812;9.180;2022-10-16T06:32:58;2.07;;;1.80;;
3975;SDS011;2002;48.812;9.180;2022-10-16T06:35:24;2.13;;;1.93;;
3975;SDS011;2002;48.812;9.180;2022-10-16T06:37:49;1.97;;;1.87;;
3975;SDS011;2002;48.812;9.180;2022-10-16T06:40:15;2.10;;;1.90;;
3975;SDS011;2002;48.812;9.180;2022-10-16T06:42:41;1.70;;;1.50;;
3975;SDS011;2002;48.812;9.180;2022-10-16T06:45:07;2.20;;;2.00;;
3975;SDS011;2002;48.812;9.180;2022-10-16T06:47:32;1.97;;;1.83;;
3975;SDS011;2002;48.812;9.180;2022-10-16T06:49:58;2.70;;;2.30;;
3975;SDS011;2002;48.812;9.180;2022-10-16T06:52:24;2.43;;;1.90;;
3975;SDS011;2002;48.812;9.180;2022-10-16T06:54:49;2.20;;;1.80;;
3975;SDS011;2002;48.812;9.180;2022-10-16T06:57:15;3.43;;;2.07;;
3975;SDS011;2002;48.812;9.180;2022-10-16T06:59:41;1.97;;;1.60;;
3975;SDS011;2002;48.812;9.180;2022-10-16T07:02:07;1.67;;;1.47;;
3975;SDS011;2002;48.812;9.180;2022-10-16T07:04:35;1.90;;;1.70;;
3975;SDS011;2002;48.812;9.180;2022-10-16T07:07:01;1.70;;;1.60;;
3975;SDS011;2002;48.812;9.180;2022-10-16T07:09:27;1.93;;;1.80;;
3975;SDS011;2002;48.812;9.180;2022-10-16T07:11:52;1.97;;;1.77;;
3975;SDS011;2002;48.812;9.180;2022-10-16T07:14:19;2.73;;;2.20;;
3975;SDS011;2002;48.812;9.180;2022-10-16T07:16:46;2.50;;;2.30;;
3975;SDS011;2002;48.812;9.180;2022-10-16T07:19:12;2.17;;;1.93;;
3975;SDS011;2002;48.812;9.180;2022-10-16T07:21:40;2.00;;;1.80;;
3975;SDS011;2002;48.812;9.180;2022-10-16T07:24:07;1.73;;;1.63;;
3975;SDS011;2002;48.812;9.180;2022-10-16T07:26:37;2.10;;;1.57;;
3975;SDS011;2002;48.812;9.180;2022-10-16T07:29:04;1.93;;;1.77;;
3975;SDS011;2002;48.812;9.180;2022-10-16T07:31:31;1.60;;;1.50;;
3975;SDS011;2002;48.812;9.180;2022-10-16T07:33:58;2.10;;;1.90;;
3975;SDS011;2002;48.812;9.180;2022-10-16T07:36:24;1.87;;;1.70;;
3975;SDS011;2002;48.812;9.180;2022-10-16T07:38:50;2.03;;;1.80;;
3975;SDS011;2002;48.812;9.180;2022-10-16T07:41:16;1.63;;;1.50;;
3975;SDS011;2002;48.812;9.180;2022-10-16T07:43:50;3.27;;;2.37;;
3975;SDS011;2002;48.812;9.180;2022-10-16T07:46:17;1.97;;;1.87;;
3975;SDS011;2002;48.812;9.180;2022-10-16T07:48:44;1.77;;;1.53;;
3975;SDS011;2002;48.812;9.180;2022-10-16T07:51:12;2.13;;;1.63;;
3975;SDS011;2002;48.812;9.180;2022-10-16T07:53:39;1.70;;;1.50;;
3975;SDS011;2002;48.812;9.180;2022-10-16T07:56:05;2.13;;;1.93;;
3975;SDS011;2002;48.812;9.180;2022-10-16T07:58:33;1.73;;;1.63;;
3975;SDS011;2002;48.812;9.180;2022-10-16T08:01:05;2.07;;;1.73;;
3975;SDS011;2002;48.812;9.180;2022-10-16T08:03:32;1.93;;;1.63;;
3975;SDS011;2002;48.812;9.180;2022-10-16T08:05:58;1.70;;;1.60;;
3975;SDS011;2002;48.812;9.180;2022-10-16T08:08:24;1.70;;;1.60;;
3975;SDS011;2002;48.812;9.180;2022-10-16T08:10:50;2.00;;;1.53;;
3975;SDS011;2002;48.812;9.180;2022-10-16T08:13:16;1.90;;;1.80;;
3975;SDS011;2002;48.812;9.180;2022-10-16T08:15:42;2.20;;;2.00;;
3975;SDS011;2002;48.812;9.180;2022-10-16T08:18:09;2.07;;;1.83;;
3975;SDS011;2002;48.812;9.180;2022-10-16T08:20:36;1.80;;;1.50;;
3975;SDS011;2002;48.812;9.180;2022-10-16T08:23:02;1.70;;;1.60;;
3975;SDS011;2002;48.812;9.180;2022-10-16T08:25:27;2.30;;;1.97;;
3975;SDS011;2002;48.812;9.180;2022-10-16T08:27:53;1.80;;;1.60;;
3975;SDS011;2002;48.812;9.180;2022-10-16T08:30:20;2.00;;;1.80;;
3975;SDS011;2002;48.812;9.180;2022-10-16T08:32:47;2.30;;;1.87;;
3975;SDS011;2002;48.812;9.180;2022-10-16T08:35:13;1.70;;;1.60;;
3975;SDS011;2002;48.812;9.180;2022-10-16T08:37:41;2.83;;;1.97;;
3975;SDS011;2002;48.812;9.180;2022-10-16T08:40:15;2.03;;;1.47;;
3975;SDS011;2002;48.812;9.180;2022-10-16T08:42:52;1.40;;;1.30;;
3975;SDS011;2002;48.812;9.180;2022-10-16T08:48:33;1.97;;;1.77;;
3975;SDS011;2002;48.812;9.180;2022-10-16T08:51:08;1.60;;;1.50;;
3975;SDS011;2002;48.812;9.180;2022-10-16T08:53:46;1.87;;;1.67;;
3975;SDS011;2002;48.812;9.180;2022-10-16T08:56:20;1.63;;;1.53;;
3975;SDS011;2002;48.812;9.180;2022-10-16T08:58:46;1.93;;;1.70;;
3975;SDS011;2002;48.812;9.180;2022-10-16T09:01:13;2.10;;;1.90;;
3975;SDS011;2002;48.812;9.180;2022-10-16T09:06:50;1.93;;;1.73;;
3975;SDS011;2002;48.812;9.180;2022-10-16T09:12:11;2.20;;;1.80;;
3975;SDS011;2002;48.812;9.180;2022-10-16T09:17:41;2.07;;;1.90;;
3975;SDS011;2002;48.812;9.180;2022-10-16T09:22:47;1.77;;;1.63;;
3975;SDS011;2002;48.812;9.180;2022-10-16T09:25:14;2.07;;;1.80;;
3975;SDS011;2002;48.812;9.180;2022-10-16T09:27:42;2.00;;;1.87;;
3975;SDS011;2002;48.812;9.180;2022-10-16T09:30:12;1.50;;;1.40;;
3975;SDS011;2002;48.812;9.180;2022-10-16T09:32:40;1.80;;;1.70;;
3975;SDS011;2002;48.812;9.180;2022-10-16T09:35:11;2.27;;;1.80;;
3975;SDS011;2002;48.812;9.180;2022-10-16T09:37:42;1.70;;;1.60;;
3975;SDS011;2002;48.812;9.180;2022-10-16T09:40:13;2.10;;;1.60;;
3975;SDS011;2002;48.812;9.180;2022-10-16T09:42:49;1.83;;;1.67;;
3975;SDS011;2002;48.812;9.180;2022-10-16T09:45:22;1.80;;;1.63;;
3975;SDS011;2002;48.812;9.180;2022-10-16T09:47:48;1.70;;;1.60;;
3975;SDS011;2002;48.812;9.180;2022-10-16T09:50:24;1.90;;;1.67;;
3975;SDS011;2002;48.812;9.180;2022-10-16T09:53:02;1.70;;;1.57;;
3975;SDS011;2002;48.812;9.180;2022-10-16T09:55:29;1.83;;;1.73;;
3975;SDS011;2002;48.812;9.180;2022-10-16T09:57:55;1.57;;;1.40;;
3975;SDS011;2002;48.812;9.180;2022-10-16T10:00:21;1.93;;;1.50;;
3975;SDS011;2002;48.812;9.180;2022-10-16T10:02:48;1.50;;;1.40;;
3975;SDS011;2002;48.812;9.180;2022-10-16T10:05:20;2.10;;;1.50;;
3975;SDS011;2002;48.812;9.180;2022-10-16T10:08:00;1.67;;;1.57;;
3975;SDS011;2002;48.812;9.180;2022-10-16T10:10:32;1.33;;;1.20;;
3975;SDS011;2002;48.812;9.180;2022-10-16T10:13:01;1.97;;;1.70;;
3975;SDS011;2002;48.812;9.180;2022-10-16T10:15:27;1.60;;;1.50;;
3975;SDS011;2002;48.812;9.180;2022-10-16T10:17:59;1.50;;;1.33;;
3975;SDS011;2002;48.812;9.180;2022-10-16T10:20:32;2.10;;;1.90;;
3975;SDS011;2002;48.812;9.180;2022-10-16T10:22:59;1.97;;;1.60;;
3975;SDS011;2002;48.812;9.180;2022-10-16T10:25:32;1.70;;;1.60;;
3975;SDS011;2002;48.812;9.180;2022-10-16T10:28:21;1.70;;;1.60;;
3975;SDS011;2002;48.812;9.180;2022-10-16T10:31:06;1.70;;;1.60;;
3975;SDS011;2002;48.812;9.180;2022-10-16T10:36:38;1.60;;;1.50;;
3975;SDS011;2002;48.812;9.180;2022-10-16T10:39:07;1.37;;;1.27;;
3975;SDS011;2002;48.812;9.180;2022-10-16T10:55:44;2.27;;;1.87;;
3975;SDS011;2002;48.812;9.180;2022-10-16T11:06:17;1.60;;;1.37;;
3975;SDS011;2002;48.812;9.180;2022-10-16T11:08:52;1.60;;;1.20;;
3975;SDS011;2002;48.812;9.180;2022-10-16T11:11:24;1.97;;;1.53;;
3975;SDS011;2002;48.812;9.180;2022-10-16T11:14:02;1.47;;;1.20;;
3975;SDS011;2002;48.812;9.180;2022-10-16T11:16:34;2.23;;;2.10;;
3975;SDS011;2002;48.812;9.180;2022-10-16T11:22:15;1.47;;;1.27;;
3975;SDS011;2002;48.812;9.180;2022-10-16T11:24:58;2.20;;;2.00;;
3975;SDS011;2002;48.812;9.180;2022-10-16T11:27:45;2.10;;;1.90;;
3975;SDS011;2002;48.812;9.180;2022-10-16T11:30:27;2.17;;;1.47;;
3975;SDS011;2002;48.812;9.180;2022-10-16T11:36:15;1.60;;;1.37;;
3975;SDS011;2002;48.812;9.180;2022-10-16T11:41:24;1.40;;;1.30;;
3975;SDS011;2002;48.812;9.180;2022-10-16T11:46:55;1.63;;;1.50;;
3975;SDS011;2002;48.812;9.180;2022-10-16T11:49:27;1.60;;;1.50;;
3975;SDS011;2002;48.812;9.180;2022-10-16T11:52:01;2.13;;;1.47;;
3975;SDS011;2002;48.812;9.180;2022-10-16T11:57:15;1.53;;;1.43;;
3975;SDS011;2002;48.812;9.180;2022-10-16T11:59:52;1.30;;;1.10;;
3975;SDS011;2002;48.812;9.180;2022-10-16T12:02:38;1.97;;;1.43;;
3975;SDS011;2002;48.812;9.180;2022-10-16T12:05:20;1.33;;;1.23;;
3975;SDS011;2002;48.812;9.180;2022-10-16T12:08:02;1.53;;;1.43;;
3975;SDS011;2002;48.812;9.180;2022-10-16T12:10:34;1.77;;;1.67;;
3975;SDS011;2002;48.812;9.180;2022-10-16T12:13:03;1.50;;;1.40;;
3975;SDS011;2002;48.812;9.180;2022-10-16T12:15:31;1.60;;;1.50;;
3975;SDS011;2002;48.812;9.180;2022-10-16T12:17:59;1.70;;;1.60;;
3975;SDS011;2002;48.812;9.180;2022-10-16T12:23:00;1.60;;;1.50;;
3975;SDS011;2002;48.812;9.180;2022-10-16T12:25:32;1.60;;;1.47;;
3975;SDS011;2002;48.812;9.180;2022-10-16T12:28:04;1.73;;;1.30;;
3975;SDS011;2002;48.812;9.180;2022-10-16T12:30:35;1.57;;;1.47;;
3975;SDS011;2002;48.812;9.180;2022-10-16T12:33:03;1.30;;;1.20;;
3975;SDS011;2002;48.812;9.180;2022-10-16T12:35:43;1.30;;;1.20;;
3975;SDS011;2002;48.812;9.180;2022-10-16T12:40:47;1.50;;;1.40;;
3975;SDS011;2002;48.812;9.180;2022-10-16T12:43:27;1.60;;;1.50;;
3975;SDS011;2002;48.812;9.180;2022-10-16T12:48:35;1.70;;;1.40;;
3975;SDS011;2002;48.812;9.180;2022-10-16T12:51:12;1.47;;;1.30;;
3975;SDS011;2002;48.812;9.180;2022-10-16T12:54:43;1.57;;;1.30;;
3975;SDS011;2002;48.812;9.180;2022-10-16T12:57:05;1.77;;;1.53;;
3975;SDS011;2002;48.812;9.180;2022-10-16T13:16:46;1.43;;;1.30;;
3975;SDS011;2002;48.812;9.180;2022-10-16T13:19:54;1.20;;;1.10;;
3975;SDS011;2002;48.812;9.180;2022-10-16T13:22:50;1.93;;;1.50;;
3975;SDS011;2002;48.812;9.180;2022-10-16T13:25:22;1.57;;;1.37;;
3975;SDS011;2002;48.812;9.180;2022-10-16T13:30:38;1.60;;;1.50;;
3975;SDS011;2002;48.812;9.180;2022-10-16T13:33:11;1.20;;;1.10;;
3975;SDS011;2002;48.812;9.180;2022-10-16T13:35:50;1.50;;;1.40;;
3975;SDS011;2002;48.812;9.180;2022-10-16T13:38:21;1.33;;;1.20;;
3975;SDS011;2002;48.812;9.180;2022-10-16T13:40:55;2.17;;;1.63;;
3975;SDS011;2002;48.812;9.180;2022-10-16T13:43:31;1.50;;;1.40;;
3975;SDS011;2002;48.812;9.180;2022-10-16T13:46:03;2.10;;;1.90;;
3975;SDS011;2002;48.812;9.180;2022-10-16T13:48:30;1.57;;;1.33;;
3975;SDS011;2002;48.812;9.180;2022-10-16T13:51:00;1.47;;;1.30;;
3975;SDS011;2002;48.812;9.180;2022-10-16T13:53:30;1.30;;;1.20;;
3975;SDS011;2002;48.812;9.180;2022-10-16T13:55:59;1.33;;;1.20;;
3975;SDS011;2002;48.812;9.180;2022-10-16T13:58:27;1.43;;;1.30;;
3975;SDS011;2002;48.812;9.180;2022-10-16T14:00:54;1.33;;;1.23;;
3975;SDS011;2002;48.812;9.180;2022-10-16T14:03:22;1.20;;;1.10;;
3975;SDS011;2002;48.812;9.180;2022-10-16T14:05:51;1.50;;;1.40;;
3975;SDS011;2002;48.812;9.180;2022-10-16T14:08:19;1.07;;;0.97;;
3975;SDS011;2002;48.812;9.180;2022-10-16T14:10:50;1.67;;;1.53;;
3975;SDS011;2002;48.812;9.180;2022-10-16T14:13:19;1.30;;;1.17;;
3975;SDS011;2002;48.812;9.180;2022-10-16T14:15:52;1.60;;;1.27;;
3975;SDS011;2002;48.812;9.180;2022-10-16T14:18:23;1.10;;;1.00;;
3975;SDS011;2002;48.812;9.180;2022-10-16T14:20:50;1.70;;;1.60;;
3975;SDS011;2002;48.812;9.180;2022-10-16T14:23:23;1.30;;;1.20;;
3975;SDS011;2002;48.812;9.180;2022-10-16T14:26:05;1.40;;;1.23;;
3975;SDS011;2002;48.812;9.180;2022-10-16T14:28:33;1.47;;;1.37;;
3975;SDS011;2002;48.812;9.180;2022-10-16T14:31:00;1.80;;;1.57;;
3975;SDS011;2002;48.812;9.180;2022-10-16T14:38:35;1.40;;;1.30;;
3975;SDS011;2002;48.812;9.180;2022-10-16T14:41:03;1.33;;;1.20;;
3975;SDS011;2002;48.812;9.180;2022-10-16T14:43:36;1.20;;;1.00;;
3975;SDS011;2002;48.812;9.180;2022-10-16T14:46:06;1.70;;;1.57;;
3975;SDS011;2002;48.812;9.180;2022-10-16T14:48:47;1.53;;;1.30;;
3975;SDS011;2002;48.812;9.180;2022-10-16T14:51:18;1.60;;;1.17;;
3975;SDS011;2002;48.812;9.180;2022-10-16T14:53:45;1.53;;;1.43;;
3975;SDS011;2002;48.812;9.180;2022-10-16T14:56:16;1.50;;;1.40;;
3975;SDS011;2002;48.812;9.180;2022-10-16T14:58:53;1.27;;;1.17;;
3975;SDS011;2002;48.812;9.180;2022-10-16T15:01:20;1.33;;;0.97;;
3975;SDS011;2002;48.812;9.180;2022-10-16T15:03:46;1.73;;;1.37;;
3975;SDS011;2002;48.812;9.180;2022-10-16T15:06:15;1.43;;;1.27;;
3975;SDS011;2002;48.812;9.180;2022-10-16T15:08:40;1.60;;;1.50;;
3975;SDS011;2002;48.812;9.180;2022-10-16T15:11:13;1.50;;;1.23;;
3975;SDS011;2002;48.812;9.180;2022-10-16T15:13:42;1.40;;;1.30;;
3975;SDS011;2002;48.812;9.180;2022-10-16T15:16:12;1.00;;;0.90;;
3975;SDS011;2002;48.812;9.180;2022-10-16T15:18:41;1.33;;;1.17;;
3975;SDS011;2002;48.812;9.180;2022-10-16T15:21:08;1.40;;;1.23;;
3975;SDS011;2002;48.812;9.180;2022-10-16T15:23:42;1.60;;;1.40;;
3975;SDS011;2002;48.812;9.180;2022-10-16T15:26:08;1.30;;;1.20;;
3975;SDS011;2002;48.812;9.180;2022-10-16T15:28:34;1.30;;;1.20;;
3975;SDS011;2002;48.812;9.180;2022-10-16T15:31:00;1.30;;;1.20;;
3975;SDS011;2002;48.812;9.180;2022-10-16T15:33:26;1.60;;;1.50;;
3975;SDS011;2002;48.812;9.180;2022-10-16T15:35:57;1.57;;;1.47;;
3975;SDS011;2002;48.812;9.180;2022-10-16T15:38:23;1.20;;;1.10;;
3975;SDS011;2002;48.812;9.180;2022-10-16T15:40:49;1.47;;;1.20;;
3975;SDS011;2002;48.812;9.180;2022-10-16T15:43:15;2.00;;;1.43;;
3975;SDS011;2002;48.812;9.180;2022-10-16T15:45:40;1.47;;;1.10;;
3975;SDS011;2002;48.812;9.180;2022-10-16T15:48:08;1.30;;;1.20;;
3975;SDS011;2002;48.812;9.180;2022-10-16T15:50:37;1.50;;;1.23;;
3975;SDS011;2002;48.812;9.180;2022-10-16T15:53:03;1.50;;;1.40;;
3975;SDS011;2002;48.812;9.180;2022-10-16T15:55:28;1.60;;;1.37;;
3975;SDS011;2002;48.812;9.180;2022-10-16T15:57:54;1.17;;;1.03;;
3975;SDS011;2002;48.812;9.180;2022-10-16T16:00:20;1.80;;;1.13;;
3975;SDS011;2002;48.812;9.180;2022-10-16T16:02:51;1.10;;;1.00;;
3975;SDS011;2002;48.812;9.180;2022-10-16T16:05:18;2.07;;;1.43;;
3975;SDS011;2002;48.812;9.180;2022-10-16T16:07:44;1.47;;;1.33;;
3975;SDS011;2002;48.812;9.180;2022-10-16T16:10:10;1.20;;;1.10;;
3975;SDS011;2002;48.812;9.180;2022-10-16T16:12:36;1.30;;;1.10;;
3975;SDS011;2002;48.812;9.180;2022-10-16T16:15:08;1.43;;;1.33;;
3975;SDS011;2002;48.812;9.180;2022-10-16T16:17:35;1.17;;;1.07;;
3975;SDS011;2002;48.812;9.180;2022-10-16T16:20:01;1.33;;;1.17;;
3975;SDS011;2002;48.812;9.180;2022-10-16T16:22:28;1.60;;;1.50;;
3975;SDS011;2002;48.812;9.180;2022-10-16T16:24:54;1.30;;;1.20;;
3975;SDS011;2002;48.812;9.180;2022-10-16T16:27:19;1.27;;;1.17;;
3975;SDS011;2002;48.812;9.180;2022-10-16T16:29:46;1.43;;;1.30;;
3975;SDS011;2002;48.812;9.180;2022-10-16T16:32:12;1.40;;;1.30;;
3975;SDS011;2002;48.812;9.180;2022-10-16T16:34:37;1.33;;;1.17;;
3975;SDS011;2002;48.812;9.180;2022-10-16T16:37:03;1.87;;;1.30;;
3975;SDS011;2002;48.812;9.180;2022-10-16T16:39:28;1.03;;;0.93;;
3975;SDS011;2002;48.812;9.180;2022-10-16T16:41:55;1.33;;;1.13;;
3975;SDS011;2002;48.812;9.180;2022-10-16T16:44:21;1.70;;;1.40;;
3975;SDS011;2002;48.812;9.180;2022-10-16T16:46:47;1.30;;;1.20;;
3975;SDS011;2002;48.812;9.180;2022-10-16T16:49:13;1.57;;;1.43;;
3975;SDS011;2002;48.812;9.180;2022-10-16T16:51:40;1.40;;;1.10;;
3975;SDS011;2002;48.812;9.180;2022-10-16T16:54:06;1.00;;;0.90;;
3975;SDS011;2002;48.812;9.180;2022-10-16T16:56:32;1.53;;;1.43;;
3975;SDS011;2002;48.812;9.180;2022-10-16T16:58:58;1.33;;;1.07;;
3975;SDS011;2002;48.812;9.180;2022-10-16T17:01:25;1.10;;;1.00;;
3975;SDS011;2002;48.812;9.180;2022-10-16T17:03:52;1.40;;;1.30;;
3975;SDS011;2002;48.812;9.180;2022-10-16T17:06:20;1.87;;;1.73;;
3975;SDS011;2002;48.812;9.180;2022-10-16T17:08:47;1.63;;;1.30;;